Airfield :
LOGIN :

Register | Disclaimer

   EN    FR    IT 

 










Legend :    VFR   Marginal VFR   IFR   Intensive IFR   Very Intensive IFR
Visi :
Ceiling :
>= 8 km
>= 3000ft
5 to 8 km
1000 to 3000 ft
1500m to 5 km
500 to 1000 ft
800 to 1500m
200 to 500 ft
< 800m
< 200 ft
Symbols :   Thunderstorms  Fog  Heavy snow  Heavy precipitations  Wind > 20 kt
SIGMETs :     Misc.  Thunderstorms  Icing  Turbulence  Mountain Waves  Volcanic Ashes






- Airport Elevation : 20 ft


EBFN - Koksijde

CURRENT METAR :
  • 020655Z AUTO 15011KT 9999 BKN140/// 05/03 Q0996 BLU

EXPIRED METARs :
  • 020625Z AUTO 15012KT 9999 SCT150/// BKN170/// 05/03 Q0996 BLU
  • 020555Z AUTO 16012KT 9999 SCT150/// BKN180/// 05/03 Q0996 BLU
  • 020525Z AUTO 16011KT 9999 BKN180/// 05/03 Q0996 BLU
  • 020455Z AUTO 16010KT 9999 NCD 05/03 Q0996 BLU
  • 020425Z AUTO 17011KT 9999 NCD 05/03 Q0996 BLU
  • 012055Z AUTO 22005KT 9999 -RA OVC035/// 05/04 Q0994 BLU
  • 020355Z AUTO 17012KT 9999 NCD 05/03 Q0995 BLU
  • 020325Z AUTO 17011KT 9999 NCD 05/03 Q0995 BLU
  • 020255Z AUTO 17009KT 9999 NCD 05/03 Q0996 BLU
  • 020225Z AUTO 18008KT 9999 NCD 05/03 Q0996 BLU
  • 020155Z AUTO 17009KT 9999 NCD 05/03 Q0996 BLU

TAF TAF EBFN
Valid from the 02 at 07:00 until the 02 at 16:00 UTC


020541Z 0207/0216 16012G22KT 9999 FEW012 SCT180
BECMG 0213/0215 SCT025 BKN040
TEMPO 0213/0216 16015G30KT 5000 -SHRA FEW018TCU SCT022 BKN035 BY EBWM



MET'MAP, your aeronautical weather chart ! - Copyright ORBIFLY December 2007 - Disclaimer

ORBIFLY MET'MAP TEAM :

Programming & Development : Alexandra Zaïnal
Original concept : Baudouin d'Aumeries
Technical & hardware support : Manuel Goepfert
Assistance : Marc-Olivier Méhu




SOURCES & CREDITS :

   NOAA